Terminal Aerodrome Forecast
Issued by NWS Blacksburg, VA

Home | Current Version | Previous Version | Text Only | Print | Product List | Glossary On
Versions: 1 2 3 4 5 6 7 8 9 10 11 12 13 14 15 16 17 18 19 20 21 22 23 24 25 26 27 28 29 30 31 32 33 34 35 36 37 38
000
FTUS41 KRNK 261128
TAFROA
TAF
KROA 261128Z 2612/2712 VRB03KT P6SM SCT050 BKN250
     FM261800 17007KT P6SM BKN050
     FM270300 11005KT P6SM VCSH OVC030
     FM270500 06007KT P6SM -SHRA OVC020
     FM270800 VRB03KT 3SM -SHRA BR OVC008
     FM270900 VRB02KT 2SM BR OVC010=

USA.gov is the U.S. government's official web portal to all federal, state and local government web resources and services.